createdAt,value
2022-10-13T00:01:57.460Z,81.57
2022-10-13T00:04:39.150Z,81.82
2022-10-13T00:07:20.841Z,81.73
2022-10-13T00:10:02.531Z,82.00
2022-10-13T00:12:44.430Z,81.65
2022-10-13T00:15:26.324Z,81.93
2022-10-13T00:18:08.323Z,81.95
2022-10-13T00:20:50.320Z,82.15
2022-10-13T00:23:34.161Z,82.50
2022-10-13T00:26:17.311Z,82.01
2022-10-13T00:28:59.431Z,81.93
2022-10-13T00:31:41.180Z,82.02
2022-10-13T00:34:22.973Z,82.15
2022-10-13T00:37:04.971Z,82.03
2022-10-13T00:39:46.560Z,81.92
2022-10-13T00:42:30.209Z,81.88
2022-10-13T00:45:26.836Z,82.18
2022-10-13T00:48:08.734Z,82.13
2022-10-13T00:50:51.141Z,82.55
2022-10-13T00:53:36.447Z,82.62
2022-10-13T00:56:19.984Z,82.96
2022-10-13T00:59:03.790Z,83.15
2022-10-13T01:01:45.585Z,83.28
2022-10-13T01:04:37.331Z,83.72
2022-10-13T01:07:19.308Z,83.64
2022-10-13T01:10:02.851Z,83.80
2022-10-13T01:12:58.466Z,83.60
2022-10-13T01:16:00.221Z,83.80
2022-10-13T01:19:11.916Z,83.59
2022-10-13T01:22:02.619Z,83.28
2022-10-13T01:24:53.524Z,83.46
2022-10-13T01:28:07.985Z,83.50
2022-10-13T01:31:03.500Z,83.43
2022-10-13T01:33:52.769Z,83.93
2022-10-13T01:37:03.642Z,84.18
2022-10-13T01:39:57.929Z,84.13
2022-10-13T01:42:58.154Z,84.38
2022-10-13T01:45:50.187Z,84.42
2022-10-13T01:48:36.282Z,84.47
2022-10-13T01:51:20.716Z,84.34
2022-10-13T01:54:06.116Z,84.10
2022-10-13T01:56:55.582Z,84.63
2022-10-13T01:59:38.815Z,84.85
2022-10-13T02:02:32.076Z,84.97
2022-10-13T02:05:18.791Z,84.85
2022-10-13T02:08:13.071Z,85.14
2022-10-13T02:11:13.604Z,85.05
2022-10-13T02:14:03.691Z,84.92
2022-10-13T02:16:47.328Z,84.29
2022-10-13T02:19:31.110Z,84.58
2022-10-13T02:22:16.014Z,84.04
2022-10-13T02:24:57.931Z,83.91
2022-10-13T02:27:40.527Z,84.28
2022-10-13T02:30:26.946Z,84.11
2022-10-13T02:33:09.455Z,84.33
2022-10-13T02:35:52.681Z,84.44
2022-10-13T02:38:34.680Z,84.47
2022-10-13T02:41:16.371Z,84.62
2022-10-13T02:43:58.062Z,84.50
2022-10-13T02:46:41.905Z,84.69
2022-10-13T02:49:23.599Z,85.01
2022-10-13T02:52:05.285Z,84.95
2022-10-13T02:54:46.875Z,85.02
2022-10-13T02:57:28.564Z,84.42
2022-10-13T03:00:13.139Z,84.36
2022-10-13T03:02:54.814Z,84.47
2022-10-13T03:05:36.504Z,84.05
2022-10-13T03:08:18.213Z,84.31
2022-10-13T03:11:00.911Z,84.40
2022-10-13T03:13:44.444Z,84.84
2022-10-13T03:16:27.057Z,84.34
2022-10-13T03:19:08.954Z,84.28
2022-10-13T03:21:50.590Z,84.64
2022-10-13T03:24:32.233Z,84.99
2022-10-13T03:27:14.441Z,85.23
2022-10-13T03:29:56.125Z,85.27
2022-10-13T03:32:37.817Z,85.49
2022-10-13T03:35:19.609Z,85.27
2022-10-13T03:38:01.305Z,85.04
2022-10-13T03:40:44.835Z,84.84
2022-10-13T03:43:26.526Z,85.35
2022-10-13T03:46:09.139Z,85.22
2022-10-13T03:48:50.830Z,85.32
2022-10-13T03:51:33.023Z,85.29
2022-10-13T03:54:15.197Z,85.45
2022-10-13T03:56:57.745Z,85.80
2022-10-13T03:59:40.952Z,85.77
2022-10-13T04:02:23.153Z,86.04
2022-10-13T04:05:06.916Z,86.28
2022-10-13T04:07:48.644Z,86.51
2022-10-13T04:10:33.369Z,86.46
2022-10-13T04:13:15.266Z,86.44
2022-10-13T04:16:05.463Z,86.67
2022-10-13T04:18:52.396Z,86.39
2022-10-13T04:21:35.082Z,86.19
2022-10-13T04:24:18.103Z,86.28
2022-10-13T04:26:59.796Z,86.39
2022-10-13T04:29:41.694Z,86.30
2022-10-13T04:32:23.291Z,86.38
2022-10-13T04:35:05.483Z,86.30
2022-10-13T04:37:47.172Z,86.20
2022-10-13T04:40:28.864Z,86.25
2022-10-13T04:43:10.760Z,86.09
2022-10-13T04:45:52.555Z,85.97
2022-10-13T04:48:34.551Z,85.78
2022-10-13T04:51:19.723Z,86.24
2022-10-13T04:54:02.820Z,86.40
2022-10-13T04:56:46.095Z,86.68
2022-10-13T04:59:27.972Z,86.77
2022-10-13T05:02:10.685Z,87.14
2022-10-13T05:04:52.376Z,86.70
2022-10-13T05:07:35.224Z,86.49
2022-10-13T05:10:16.987Z,86.55
2022-10-13T05:12:58.576Z,86.42
2022-10-13T05:15:42.293Z,86.11
2022-10-13T05:18:24.519Z,86.28
2022-10-13T05:21:15.289Z,86.48
2022-10-13T05:23:58.242Z,86.46
2022-10-13T05:26:40.752Z,86.75
2022-10-13T05:29:22.956Z,86.52
2022-10-13T05:32:05.055Z,86.84
2022-10-13T05:34:49.409Z,86.65
2022-10-13T05:37:31.099Z,87.75
2022-10-13T05:40:13.304Z,87.74
2022-10-13T05:42:55.711Z,87.90
2022-10-13T05:45:37.784Z,88.12
2022-10-13T05:48:19.603Z,88.39
2022-10-13T05:51:05.088Z,88.79
2022-10-13T05:54:13.194Z,89.06
2022-10-13T05:56:59.944Z,89.84
2022-10-13T05:59:52.553Z,90.37
2022-10-13T06:02:41.153Z,90.57
2022-10-13T06:05:26.595Z,90.55
2022-10-13T06:08:10.014Z,90.86
2022-10-13T06:10:52.218Z,90.83
2022-10-13T06:13:35.445Z,90.90
2022-10-13T06:16:17.240Z,91.09
2022-10-13T06:18:59.030Z,91.37
2022-10-13T06:21:40.721Z,91.72
2022-10-13T06:24:22.309Z,91.52
2022-10-13T06:27:04.782Z,91.88
2022-10-13T06:29:46.518Z,91.93
2022-10-13T06:32:28.508Z,92.10
2022-10-13T06:35:10.307Z,92.26
2022-10-13T06:37:53.427Z,92.09
2022-10-13T06:40:35.424Z,92.34
2022-10-13T06:43:17.017Z,92.24
2022-10-13T06:45:59.867Z,92.44
2022-10-13T06:48:42.751Z,92.49
2022-10-13T06:51:24.645Z,92.38
2022-10-13T06:54:06.337Z,92.01
2022-10-13T06:56:48.439Z,91.74
2022-10-13T06:59:30.028Z,91.76
2022-10-13T07:02:11.954Z,91.50
2022-10-13T07:04:53.759Z,90.82
2022-10-13T07:07:35.508Z,89.71
2022-10-13T07:10:17.114Z,89.33
2022-10-13T07:12:58.786Z,87.99
2022-10-13T07:15:41.197Z,87.72
2022-10-13T07:18:22.887Z,86.91
2022-10-13T07:21:04.987Z,86.19
2022-10-13T07:23:47.102Z,85.45
2022-10-13T07:26:29.187Z,85.30
2022-10-13T07:29:11.185Z,84.03
2022-10-13T07:31:53.388Z,83.77
2022-10-13T07:34:34.992Z,81.93
2022-10-13T07:37:17.283Z,79.74
2022-10-13T07:40:00.610Z,79.77
2022-10-13T07:42:43.737Z,79.32
2022-10-13T07:45:25.630Z,77.78
2022-10-13T07:48:07.296Z,77.71
2022-10-13T07:50:49.012Z,78.40
2022-10-13T07:53:30.705Z,77.53
2022-10-13T07:56:14.032Z,76.61
2022-10-13T07:58:55.725Z,74.78
2022-10-13T08:01:37.446Z,73.88
2022-10-13T08:04:19.310Z,72.97
2022-10-13T08:07:01.207Z,73.17
2022-10-13T08:09:44.778Z,72.07
2022-10-13T08:12:26.409Z,71.09
2022-10-13T08:15:09.341Z,70.84
2022-10-13T08:17:51.031Z,69.91
2022-10-13T08:20:41.168Z,69.19
2022-10-13T08:23:25.175Z,69.32
2022-10-13T08:26:16.466Z,68.12
2022-10-13T08:29:16.814Z,67.16
2022-10-13T08:31:59.741Z,68.26
2022-10-13T08:34:41.533Z,66.05
2022-10-13T08:37:23.224Z,65.66
2022-10-13T08:40:05.621Z,66.28
2022-10-13T08:42:47.384Z,66.09
2022-10-13T08:45:46.668Z,65.21
2022-10-13T08:48:32.847Z,63.72
2022-10-13T08:51:16.459Z,63.45
2022-10-13T08:53:59.010Z,63.40
2022-10-13T08:56:41.786Z,62.99
2022-10-13T08:59:23.683Z,63.48
2022-10-13T09:02:16.332Z,62.77
2022-10-13T09:05:02.340Z,62.58
2022-10-13T09:07:46.494Z,62.27
2022-10-13T09:10:28.162Z,61.94
2022-10-13T09:13:10.671Z,60.38
2022-10-13T09:15:52.464Z,60.17
2022-10-13T09:18:34.873Z,60.22
2022-10-13T09:21:22.816Z,60.05
2022-10-13T09:24:16.715Z,60.04
2022-10-13T09:27:06.568Z,60.10
2022-10-13T09:29:49.592Z,60.08
2022-10-13T09:32:35.994Z,58.92
2022-10-13T09:35:22.173Z,58.04
2022-10-13T09:38:05.112Z,57.97
2022-10-13T09:41:11.069Z,57.79
2022-10-13T09:43:52.658Z,58.34
2022-10-13T09:46:57.007Z,58.35
2022-10-13T09:49:41.511Z,57.47
2022-10-13T09:52:25.295Z,56.84
2022-10-13T09:55:32.134Z,56.53
2022-10-13T09:58:31.127Z,56.37
2022-10-13T10:01:28.104Z,56.33
2022-10-13T10:04:15.437Z,54.86
2022-10-13T10:06:58.038Z,54.88
2022-10-13T10:09:44.953Z,54.36
2022-10-13T10:12:30.330Z,54.24
2022-10-13T10:15:26.254Z,54.30
2022-10-13T10:18:38.869Z,53.75
2022-10-13T10:21:37.149Z,53.33
2022-10-13T10:24:43.826Z,53.38
2022-10-13T10:27:50.502Z,53.29
2022-10-13T10:30:39.875Z,52.10
2022-10-13T10:33:33.852Z,49.98
2022-10-13T10:36:22.163Z,50.67
2022-10-13T10:39:21.912Z,50.65
2022-10-13T10:42:15.891Z,50.73
2022-10-13T10:45:01.678Z,50.84
2022-10-13T10:47:47.465Z,51.00
2022-10-13T10:50:31.326Z,50.44
2022-10-13T10:54:06.451Z,49.96
2022-10-13T10:57:03.955Z,49.69
2022-10-13T11:00:03.010Z,50.36
2022-10-13T11:02:51.506Z,50.12
2022-10-13T11:05:58.135Z,49.75
2022-10-13T11:08:42.668Z,49.14
2022-10-13T11:11:29.263Z,49.13
2022-10-13T11:14:25.815Z,48.89
2022-10-13T11:17:07.359Z,48.45
2022-10-13T11:19:49.734Z,49.66
2022-10-13T11:22:31.732Z,49.04
2022-10-13T11:25:42.401Z,48.68
2022-10-13T11:28:26.304Z,48.21
2022-10-13T11:31:13.990Z,47.58
2022-10-13T11:33:59.090Z,47.89
2022-10-13T11:36:55.810Z,49.21
2022-10-13T11:39:55.607Z,48.60
2022-10-13T11:43:08.423Z,49.52
2022-10-13T11:46:25.446Z,49.58
2022-10-13T11:49:35.501Z,50.04
2022-10-13T11:52:55.796Z,50.35
2022-10-13T11:55:55.818Z,50.54
2022-10-13T11:58:42.424Z,49.99
2022-10-13T12:01:24.116Z,50.56
2022-10-13T12:04:14.919Z,50.66
2022-10-13T12:07:01.116Z,50.87
2022-10-13T12:09:54.403Z,51.34
2022-10-13T12:12:36.994Z,51.41
2022-10-13T12:15:36.601Z,52.13
2022-10-13T12:18:24.644Z,52.71
2022-10-13T12:21:21.590Z,52.47
2022-10-13T12:24:09.630Z,52.57
2022-10-13T12:26:54.710Z,52.52
2022-10-13T12:29:41.267Z,52.54
2022-10-13T12:32:26.024Z,52.62
2022-10-13T12:35:36.739Z,53.19
2022-10-13T12:38:20.563Z,52.69
2022-10-13T12:41:03.572Z,52.95
2022-10-13T12:43:47.061Z,52.98
2022-10-13T12:46:42.165Z,52.21
2022-10-13T12:49:39.933Z,52.54
2022-10-13T12:52:29.320Z,53.04
2022-10-13T12:55:21.150Z,53.29
2022-10-13T12:58:06.407Z,53.02
2022-10-13T13:01:09.930Z,52.79
2022-10-13T13:04:04.960Z,53.45
2022-10-13T13:06:57.466Z,53.23
2022-10-13T13:09:42.527Z,53.01
2022-10-13T13:12:29.845Z,54.11
2022-10-13T13:15:27.420Z,54.10
2022-10-13T13:18:39.654Z,53.64
2022-10-13T13:21:21.389Z,54.37
2022-10-13T13:24:07.457Z,54.87
2022-10-13T13:26:57.878Z,55.51
2022-10-13T13:29:40.081Z,56.18
2022-10-13T13:32:24.438Z,56.59
2022-10-13T13:35:06.637Z,56.41
2022-10-13T13:37:51.049Z,56.90
2022-10-13T13:40:32.784Z,57.23
2022-10-13T13:43:14.477Z,57.15
2022-10-13T13:45:56.169Z,57.54
2022-10-13T13:48:37.957Z,57.98
2022-10-13T13:51:19.751Z,58.25
2022-10-13T13:54:01.546Z,58.19
2022-10-13T13:56:43.136Z,58.31
2022-10-13T13:59:24.825Z,58.61
2022-10-13T14:02:14.203Z,58.31
2022-10-13T14:04:58.756Z,57.95
2022-10-13T14:07:42.294Z,57.80
2022-10-13T14:10:25.719Z,58.27
2022-10-13T14:13:07.617Z,58.24
2022-10-13T14:16:00.059Z,58.36
2022-10-13T14:18:42.058Z,58.62
2022-10-13T14:37:02.663Z,57.41
2022-10-13T14:39:44.808Z,57.30
2022-10-13T14:42:28.181Z,57.88
2022-10-13T14:45:14.595Z,57.58
2022-10-13T14:47:56.698Z,58.01
2022-10-13T14:50:39.213Z,58.23
2022-10-13T14:53:20.896Z,58.49
2022-10-13T14:56:04.204Z,59.27
2022-10-13T14:58:51.905Z,59.11
2022-10-13T15:01:34.879Z,59.12
2022-10-13T15:04:16.572Z,59.09
2022-10-13T15:06:58.465Z,59.12
2022-10-13T15:09:52.680Z,59.61
2022-10-13T15:12:35.055Z,59.76
2022-10-13T15:15:17.053Z,60.18
2022-10-13T15:17:58.744Z,60.32
2022-10-13T15:20:45.454Z,60.54
2022-10-13T15:23:28.885Z,60.77
2022-10-13T15:26:12.322Z,61.13
2022-10-13T15:28:54.136Z,61.53
2022-10-13T15:31:35.806Z,61.78
2022-10-13T15:34:17.389Z,62.08
2022-10-13T15:36:58.978Z,62.41
2022-10-13T15:39:40.570Z,62.58
2022-10-13T15:42:22.600Z,62.94
2022-10-13T15:45:10.008Z,63.17
2022-10-13T15:47:53.217Z,63.59
2022-10-13T15:50:39.082Z,63.90
2022-10-13T15:53:21.206Z,64.01
2022-10-13T15:56:03.121Z,64.26
2022-10-13T15:58:45.638Z,64.47
2022-10-13T16:01:27.414Z,64.92
2022-10-13T16:04:09.198Z,65.35
2022-10-13T16:06:50.787Z,65.80
2022-10-13T16:09:32.423Z,65.97
2022-10-13T16:12:14.175Z,66.40
2022-10-13T16:14:56.270Z,66.72
2022-10-13T16:17:40.336Z,67.22
2022-10-13T16:20:24.627Z,67.25
2022-10-13T16:23:07.490Z,67.49
2022-10-13T16:25:49.178Z,67.73
2022-10-13T16:28:30.954Z,67.96
2022-10-13T16:31:16.444Z,67.97
2022-10-13T16:33:58.656Z,68.18
2022-10-13T16:36:40.448Z,68.23
2022-10-13T16:39:25.006Z,68.26
2022-10-13T16:42:06.901Z,68.20
2022-10-13T16:44:48.797Z,68.27
2022-10-13T16:47:30.486Z,68.59
2022-10-13T16:50:19.141Z,68.60
2022-10-13T16:53:01.069Z,69.03
2022-10-13T16:55:43.246Z,69.37
2022-10-13T16:58:25.245Z,69.41
2022-10-13T17:01:11.596Z,69.45
2022-10-13T17:03:55.888Z,69.86
2022-10-13T17:06:40.883Z,69.98
2022-10-13T17:09:22.519Z,69.93
2022-10-13T17:12:06.492Z,70.34
2022-10-13T17:14:49.002Z,70.50
2022-10-13T17:17:30.668Z,70.61
2022-10-13T17:20:13.411Z,70.82
2022-10-13T17:22:55.463Z,71.14
2022-10-13T17:25:37.097Z,71.38
2022-10-13T17:28:23.241Z,71.23
2022-10-13T17:31:12.890Z,71.61
2022-10-13T17:33:55.072Z,71.70
2022-10-13T17:36:36.763Z,72.20
2022-10-13T17:39:25.203Z,72.60
2022-10-13T17:42:39.878Z,73.06
2022-10-13T17:45:23.103Z,73.40
2022-10-13T17:48:04.897Z,73.58
2022-10-13T17:50:47.815Z,73.58
2022-10-13T17:53:29.507Z,74.16
2022-10-13T17:56:14.891Z,74.06
2022-10-13T17:58:57.044Z,74.32
2022-10-13T18:01:39.376Z,74.53
2022-10-13T18:04:22.313Z,74.68
2022-10-13T18:07:04.003Z,74.85
2022-10-13T18:09:45.695Z,75.06
2022-10-13T18:12:27.385Z,75.29
2022-10-13T18:15:09.295Z,75.29
2022-10-13T18:17:50.974Z,75.11
2022-10-13T18:20:32.560Z,75.11
2022-10-13T18:23:32.324Z,75.53
2022-10-13T18:26:20.477Z,75.51
2022-10-13T18:29:04.439Z,75.36
2022-10-13T18:31:46.405Z,75.57
2022-10-13T18:34:28.069Z,75.77
2022-10-13T18:37:09.693Z,75.66
2022-10-13T18:39:51.328Z,75.66
2022-10-13T18:42:33.019Z,75.82
2022-10-13T18:45:15.333Z,75.61
2022-10-13T18:47:56.917Z,75.84
2022-10-13T18:50:39.116Z,75.80
2022-10-13T18:53:20.909Z,75.77
2022-10-13T18:56:07.618Z,75.65
2022-10-13T18:58:53.512Z,75.82
2022-10-13T19:01:39.704Z,75.85
2022-10-13T19:04:22.564Z,76.00
2022-10-13T19:07:12.041Z,76.04
2022-10-13T19:09:55.527Z,76.24
2022-10-13T19:12:37.320Z,76.45
2022-10-13T19:15:19.012Z,76.92
2022-10-13T19:18:00.805Z,77.00
2022-10-13T19:20:42.497Z,77.29
2022-10-13T19:23:25.585Z,77.48
2022-10-13T19:26:15.262Z,77.83
2022-10-13T19:29:00.803Z,77.96
2022-10-13T19:31:44.485Z,78.43
2022-10-13T19:34:27.234Z,78.42
2022-10-13T19:37:10.256Z,78.63
2022-10-13T19:39:52.254Z,78.63
2022-10-13T19:42:37.263Z,78.81
2022-10-13T19:45:22.312Z,78.69
2022-10-13T19:48:12.685Z,78.74
2022-10-13T19:50:54.803Z,78.84
2022-10-13T19:53:38.525Z,79.20
2022-10-13T19:56:38.653Z,79.51
2022-10-13T19:59:26.281Z,79.73
2022-10-13T20:02:10.301Z,80.00
2022-10-13T20:05:24.633Z,80.09
2022-10-13T20:08:10.547Z,80.22
2022-10-13T20:10:52.568Z,80.28
2022-10-13T20:13:34.565Z,80.45
2022-10-13T20:16:19.045Z,80.69
2022-10-13T20:19:02.878Z,80.69
2022-10-13T20:21:45.403Z,80.76
2022-10-13T20:24:30.557Z,80.99
2022-10-13T20:27:40.297Z,80.85
2022-10-13T20:30:25.774Z,81.07
2022-10-13T20:33:09.103Z,81.24
2022-10-13T20:35:50.897Z,81.27
2022-10-13T20:38:37.981Z,81.05
2022-10-13T20:41:26.965Z,81.19
2022-10-13T20:44:09.998Z,81.27
2022-10-13T20:46:51.694Z,81.30
2022-10-13T20:49:36.554Z,81.27
2022-10-13T20:52:18.450Z,81.31
2022-10-13T20:55:04.695Z,81.29
2022-10-13T20:57:53.301Z,81.39
2022-10-13T21:00:34.977Z,81.33
2022-10-13T21:03:19.551Z,81.23
2022-10-13T21:06:04.195Z,81.43
2022-10-13T21:08:47.856Z,81.23
2022-10-13T21:11:29.659Z,81.27
2022-10-13T21:14:11.434Z,81.40
2022-10-13T21:16:55.889Z,81.49
2022-10-13T21:19:37.889Z,81.66
2022-10-13T21:22:19.680Z,81.76
2022-10-13T21:25:01.884Z,81.74
2022-10-13T21:27:44.192Z,81.90
2022-10-13T21:30:25.981Z,82.01
2022-10-13T21:33:07.777Z,81.90
2022-10-13T21:35:49.671Z,82.05
2022-10-13T21:38:31.260Z,81.96
2022-10-13T21:41:14.656Z,81.88
2022-10-13T21:43:56.586Z,82.01
2022-10-13T21:46:38.483Z,81.95
2022-10-13T21:49:20.174Z,82.07
2022-10-13T21:52:02.375Z,82.14
2022-10-13T21:54:44.388Z,82.04
2022-10-13T21:57:26.373Z,82.05
2022-10-13T22:00:09.061Z,82.14
2022-10-13T22:02:54.358Z,82.27
2022-10-13T22:05:37.739Z,82.36
2022-10-13T22:08:19.383Z,82.29
2022-10-13T22:11:00.983Z,82.49
2022-10-13T22:13:42.563Z,82.76
2022-10-13T22:16:27.217Z,82.68
2022-10-13T22:19:09.010Z,82.86
2022-10-13T22:21:51.590Z,83.18
2022-10-13T22:24:33.213Z,83.34
2022-10-13T22:27:14.801Z,83.43
2022-10-13T22:29:56.397Z,83.70
2022-10-13T22:32:38.286Z,83.60
2022-10-13T22:35:19.886Z,83.76
2022-10-13T22:38:01.616Z,83.69
2022-10-13T22:40:43.255Z,83.83
2022-10-13T22:43:24.949Z,83.98
2022-10-13T22:46:08.383Z,84.28
2022-10-13T22:48:50.988Z,84.67
2022-10-13T22:51:35.041Z,84.97
2022-10-13T22:54:16.729Z,85.22
2022-10-13T22:56:58.291Z,85.14
2022-10-13T22:59:39.865Z,85.14
2022-10-13T23:02:21.596Z,85.29
2022-10-13T23:05:03.592Z,85.11
2022-10-13T23:07:45.371Z,85.34
2022-10-13T23:10:27.082Z,85.25
2022-10-13T23:13:08.687Z,85.57
2022-10-13T23:15:50.769Z,85.49
2022-10-13T23:18:32.869Z,85.78
2022-10-13T23:21:17.697Z,85.73
2022-10-13T23:24:02.659Z,86.09
2022-10-13T23:26:44.804Z,86.05
2022-10-13T23:29:27.279Z,86.14
2022-10-13T23:32:09.976Z,86.07
2022-10-13T23:34:52.128Z,86.42
2022-10-13T23:37:34.535Z,86.60
2022-10-13T23:40:16.386Z,86.76
2022-10-13T23:42:58.020Z,86.77
2022-10-13T23:45:40.019Z,86.89
2022-10-13T23:48:21.915Z,86.55
2022-10-13T23:51:15.483Z,86.61
2022-10-13T23:53:57.186Z,86.57
2022-10-13T23:56:39.069Z,86.57
2022-10-13T23:59:20.690Z,86.41
